Time;durP1;ratioP1;P1;durP2;ratioP2;P2;SDS_P1;SDS_P2;PMS_P1;PMS_P2;Temp;Humidity;BMP_temperature;BMP_pressure;BME280_temperature;BME280_humidity;BME280_pressure;Samples;Min_cycle;Max_cycle;Signal;HPM_P1;HPM_P2
2022/03/11 00:01:13;;;;;;;8.50;6.40;;;9.10;42.00;;;;;;925684;149;27458;-75
2022/03/11 00:03:39;;;;;;;6.77;6.10;;;9.10;41.90;;;;;;929687;149;27353;-75
2022/03/11 00:06:06;;;;;;;8.37;6.60;;;9.10;41.90;;;;;;927465;149;27262;-75
2022/03/11 00:08:32;;;;;;;8.00;6.23;;;9.10;42.00;;;;;;927222;149;27866;-76
2022/03/11 00:10:59;;;;;;;8.47;6.67;;;9.00;42.10;;;;;;926770;149;27325;-76
2022/03/11 00:13:26;;;;;;;7.63;6.53;;;9.00;42.20;;;;;;928101;149;27385;-75
2022/03/11 00:15:52;;;;;;;9.70;6.70;;;9.00;42.10;;;;;;906446;153;28127;-77
2022/03/11 00:18:20;;;;;;;9.23;7.03;;;9.00;42.00;;;;;;904129;153;27459;-75
2022/03/11 00:20:45;;;;;;;7.70;6.67;;;9.00;42.30;;;;;;902205;155;27391;-75
2022/03/11 00:23:12;;;;;;;9.57;6.57;;;8.90;42.20;;;;;;904745;154;27837;-75
2022/03/11 00:25:38;;;;;;;9.67;6.60;;;8.90;42.50;;;;;;906525;154;27451;-78
2022/03/11 00:28:05;;;;;;;9.03;7.23;;;8.90;42.50;;;;;;907327;154;27479;-75
2022/03/11 00:30:32;;;;;;;9.40;7.40;;;8.80;42.30;;;;;;906663;154;27364;-75
2022/03/11 00:32:58;;;;;;;9.43;7.03;;;8.80;42.50;;;;;;906711;154;27444;-74
2022/03/11 00:35:25;;;;;;;9.10;6.27;;;8.70;42.50;;;;;;906724;154;27442;-75
2022/03/11 00:37:51;;;;;;;9.27;7.13;;;8.70;42.70;;;;;;908221;154;27411;-77
2022/03/11 00:40:18;;;;;;;8.17;7.03;;;8.70;42.60;;;;;;907355;154;28599;-75
2022/03/11 00:42:45;;;;;;;11.30;7.30;;;8.60;43.00;;;;;;905558;154;27449;-75
2022/03/11 00:45:11;;;;;;;10.90;7.93;;;8.60;42.80;;;;;;905821;153;27378;-75
2022/03/11 00:47:38;;;;;;;9.60;7.37;;;8.50;42.90;;;;;;895884;155;27525;-76
2022/03/11 00:50:05;;;;;;;9.63;7.23;;;8.50;43.00;;;;;;909958;154;27401;-76
2022/03/11 00:52:31;;;;;;;9.43;7.30;;;8.50;42.90;;;;;;924320;149;28021;-75
2022/03/11 00:54:57;;;;;;;8.00;6.97;;;8.40;43.20;;;;;;925150;148;27259;-75
2022/03/11 00:57:24;;;;;;;10.00;7.10;;;8.40;43.20;;;;;;925094;149;27414;-75
2022/03/11 00:59:51;;;;;;;9.43;7.53;;;8.40;43.50;;;;;;925199;149;27387;-76
2022/03/11 01:02:17;;;;;;;12.43;7.73;;;8.30;43.50;;;;;;923329;149;27374;-74
2022/03/11 01:04:44;;;;;;;8.97;6.87;;;8.30;43.70;;;;;;922944;149;28796;-74
2022/03/11 01:07:10;;;;;;;10.33;7.90;;;8.30;43.70;;;;;;923597;149;27335;-75
2022/03/11 01:09:37;;;;;;;13.37;7.80;;;8.30;43.70;;;;;;924592;149;27350;-75
2022/03/11 01:12:04;;;;;;;10.37;8.00;;;8.30;43.80;;;;;;923225;150;27419;-75
2022/03/11 01:14:30;;;;;;;12.13;7.97;;;8.20;43.70;;;;;;924969;149;27386;-77
2022/03/11 01:16:57;;;;;;;12.33;8.20;;;8.20;43.70;;;;;;923039;149;27375;-75
2022/03/11 01:19:23;;;;;;;9.30;7.57;;;8.20;43.90;;;;;;922896;149;27362;-75
2022/03/11 01:21:50;;;;;;;10.43;8.20;;;8.10;44.00;;;;;;923982;149;27411;-75
2022/03/11 01:24:17;;;;;;;10.37;8.07;;;8.10;44.10;;;;;;921780;149;27644;-76
2022/03/11 01:26:43;;;;;;;12.37;9.10;;;8.10;44.20;;;;;;924741;149;27484;-75
2022/03/11 01:29:10;;;;;;;11.30;8.87;;;8.10;43.70;;;;;;924666;149;27455;-75
2022/03/11 01:31:36;;;;;;;9.80;8.37;;;8.10;44.30;;;;;;922682;149;27460;-76
2022/03/11 01:34:03;;;;;;;11.83;8.63;;;8.00;44.30;;;;;;923392;150;27351;-76
2022/03/11 01:36:29;;;;;;;10.53;7.93;;;8.00;44.40;;;;;;924503;149;27454;-75
2022/03/11 01:38:56;;;;;;;12.50;9.07;;;8.00;44.50;;;;;;925772;149;27369;-77
2022/03/11 01:41:23;;;;;;;12.00;9.00;;;8.00;44.50;;;;;;921864;149;27366;-75
2022/03/11 01:43:52;;;;;;;10.97;8.67;;;8.00;44.60;;;;;;925944;149;27363;-75
2022/03/11 01:46:18;;;;;;;11.50;8.63;;;7.90;44.50;;;;;;924633;149;27301;-76
2022/03/11 01:48:45;;;;;;;11.93;8.77;;;7.90;44.80;;;;;;925866;149;27298;-77
2022/03/11 01:51:11;;;;;;;14.63;9.97;;;7.90;44.90;;;;;;924756;149;27531;-74
2022/03/11 01:53:38;;;;;;;12.90;10.10;;;7.90;44.90;;;;;;921376;149;27390;-74
2022/03/11 01:56:05;;;;;;;13.90;9.57;;;7.80;45.20;;;;;;921421;149;27395;-75
2022/03/11 01:58:31;;;;;;;12.17;10.17;;;7.80;45.10;;;;;;922773;149;27270;-75
2022/03/11 02:00:58;;;;;;;12.80;10.07;;;7.80;45.20;;;;;;923565;149;27762;-76
2022/03/11 02:03:24;;;;;;;11.47;9.50;;;7.80;45.40;;;;;;922878;149;27484;-77
2022/03/11 02:05:51;;;;;;;12.13;10.10;;;7.80;45.40;;;;;;920690;149;27366;-75
2022/03/11 02:08:18;;;;;;;11.50;9.53;;;7.80;45.30;;;;;;921859;149;27447;-75
2022/03/11 02:10:44;;;;;;;13.23;10.13;;;7.70;45.20;;;;;;921753;150;27318;-75
2022/03/11 02:13:11;;;;;;;13.03;9.27;;;7.70;45.30;;;;;;923645;149;27310;-75
2022/03/11 02:15:37;;;;;;;16.70;10.00;;;7.70;45.50;;;;;;923499;149;27330;-77
2022/03/11 02:18:04;;;;;;;14.70;11.07;;;7.60;45.30;;;;;;923644;149;27358;-75
2022/03/11 02:20:31;;;;;;;12.17;10.23;;;7.60;45.30;;;;;;925180;149;27292;-76
2022/03/11 02:22:57;;;;;;;14.10;10.37;;;7.60;45.30;;;;;;921753;149;27283;-77
2022/03/11 02:25:24;;;;;;;15.57;11.50;;;7.50;45.70;;;;;;923693;149;27967;-78
2022/03/11 02:27:51;;;;;;;14.40;10.77;;;7.50;46.00;;;;;;924779;149;27333;-79
2022/03/11 02:30:17;;;;;;;14.93;10.37;;;7.50;45.90;;;;;;925291;149;27376;-77
2022/03/11 02:32:43;;;;;;;12.90;10.23;;;7.50;45.80;;;;;;923376;149;28209;-77
2022/03/11 02:35:10;;;;;;;13.97;11.20;;;7.40;45.90;;;;;;923626;149;27282;-77
2022/03/11 02:37:37;;;;;;;12.60;10.67;;;7.40;46.00;;;;;;933335;148;27403;-75
2022/03/11 02:40:03;;;;;;;11.83;10.17;;;7.40;46.10;;;;;;930460;148;27648;-76
2022/03/11 02:42:30;;;;;;;14.63;10.83;;;7.40;46.20;;;;;;918982;150;27466;-77
2022/03/11 02:44:59;;;;;;;14.60;10.63;;;7.40;46.40;;;;;;929814;148;27346;-74
2022/03/11 02:47:26;;;;;;;15.70;11.33;;;7.40;46.40;;;;;;931446;149;27335;-75
2022/03/11 02:49:52;;;;;;;15.10;10.07;;;7.40;46.10;;;;;;930712;148;27271;-75
2022/03/11 02:52:19;;;;;;;14.73;10.67;;;7.30;46.00;;;;;;933348;147;28625;-77
2022/03/11 02:54:45;;;;;;;15.00;10.50;;;7.30;46.00;;;;;;929150;148;27408;-77
2022/03/11 02:57:12;;;;;;;13.97;10.53;;;7.30;46.20;;;;;;928899;148;27907;-75
2022/03/11 02:59:39;;;;;;;14.20;11.13;;;7.30;46.10;;;;;;931181;148;27362;-75
2022/03/11 03:02:05;;;;;;;13.33;10.33;;;7.20;46.30;;;;;;932246;148;27374;-75
2022/03/11 03:04:32;;;;;;;12.27;10.20;;;7.20;46.30;;;;;;928567;148;27396;-75
2022/03/11 03:06:58;;;;;;;12.80;10.17;;;7.10;46.30;;;;;;931049;148;27414;-77
2022/03/11 03:09:25;;;;;;;12.97;10.57;;;7.10;46.30;;;;;;929673;148;27417;-74
2022/03/11 03:11:52;;;;;;;17.23;11.93;;;7.10;46.40;;;;;;929685;148;27434;-75
2022/03/11 03:14:18;;;;;;;12.83;10.63;;;7.00;46.20;;;;;;929470;148;27306;-75
2022/03/11 03:16:45;;;;;;;14.63;10.13;;;7.00;46.30;;;;;;930177;148;27291;-75
2022/03/11 03:19:11;;;;;;;13.20;10.33;;;6.90;46.10;;;;;;929409;148;27769;-76
2022/03/11 03:21:39;;;;;;;16.37;10.90;;;6.90;46.50;;;;;;931013;148;27383;-75
2022/03/11 03:24:04;;;;;;;13.43;10.60;;;6.90;46.40;;;;;;922295;150;28115;-74
2022/03/11 03:26:31;;;;;;;15.30;10.43;;;6.80;46.40;;;;;;923981;150;27252;-75
2022/03/11 03:28:58;;;;;;;14.27;11.37;;;6.80;46.50;;;;;;928766;148;27284;-75
2022/03/11 03:31:24;;;;;;;13.90;10.40;;;6.80;46.50;;;;;;929888;148;27319;-76
2022/03/11 03:33:51;;;;;;;14.23;10.73;;;6.70;46.60;;;;;;929544;148;27361;-75
2022/03/11 03:36:17;;;;;;;13.93;10.57;;;6.70;46.60;;;;;;930816;148;27329;-75
2022/03/11 03:38:44;;;;;;;15.83;11.30;;;6.70;46.70;;;;;;927343;148;27247;-76
2022/03/11 03:41:11;;;;;;;13.43;10.47;;;6.60;46.70;;;;;;915405;151;27340;-78
2022/03/11 03:43:37;;;;;;;11.47;9.47;;;6.60;46.70;;;;;;929291;148;27344;-80
2022/03/11 03:46:06;;;;;;;14.07;11.13;;;6.60;46.70;;;;;;921874;150;27846;-77
2022/03/11 03:48:30;;;;;;;12.87;10.07;;;6.50;46.80;;;;;;922343;150;27324;-79
2022/03/11 03:50:57;;;;;;;12.57;9.73;;;6.50;47.00;;;;;;923745;150;27347;-81
2022/03/11 03:53:25;;;;;;;14.60;11.27;;;6.40;47.20;;;;;;934266;149;27365;-79
2022/03/11 03:55:50;;;;;;;13.20;10.47;;;6.40;47.30;;;;;;940778;149;27368;-79
2022/03/11 03:58:17;;;;;;;12.80;10.20;;;6.40;47.20;;;;;;932455;149;27807;-79
2022/03/11 04:00:43;;;;;;;15.10;11.23;;;6.40;47.50;;;;;;937271;148;28079;-78
2022/03/11 04:03:10;;;;;;;12.60;10.40;;;6.40;47.50;;;;;;938033;148;27332;-78
2022/03/11 04:05:37;;;;;;;15.50;10.43;;;6.40;47.30;;;;;;938306;148;27275;-78
2022/03/11 04:08:03;;;;;;;12.90;10.27;;;6.40;47.20;;;;;;940436;148;27344;-78
2022/03/11 04:10:30;;;;;;;12.30;9.83;;;6.40;47.30;;;;;;940825;148;27357;-78
2022/03/11 04:12:57;;;;;;;15.17;10.13;;;6.40;47.30;;;;;;919836;152;27495;-78
2022/03/11 04:15:23;;;;;;;13.67;10.07;;;6.30;47.20;;;;;;937790;148;27342;-78
2022/03/11 04:17:49;;;;;;;12.57;10.73;;;6.30;47.20;;;;;;931501;150;27626;-78
2022/03/11 04:20:17;;;;;;;14.10;10.90;;;6.30;47.20;;;;;;934393;150;27355;-78
2022/03/11 04:22:43;;;;;;;12.57;8.87;;;6.30;47.10;;;;;;933603;150;27428;-78
2022/03/11 04:25:12;;;;;;;11.83;9.73;;;6.30;47.10;;;;;;933124;150;27882;-78
2022/03/11 04:27:39;;;;;;;11.97;9.90;;;6.30;47.00;;;;;;933724;150;27416;-78
2022/03/11 04:30:05;;;;;;;14.40;9.63;;;6.20;46.80;;;;;;931148;150;27332;-78
2022/03/11 04:32:32;;;;;;;10.30;9.20;;;6.20;46.90;;;;;;933800;150;27396;-78
2022/03/11 04:34:59;;;;;;;11.73;9.90;;;6.20;47.00;;;;;;932710;150;27406;-78
2022/03/11 04:37:25;;;;;;;12.73;9.90;;;6.10;47.00;;;;;;932174;150;27370;-78
2022/03/11 04:39:52;;;;;;;11.57;9.37;;;6.10;47.00;;;;;;921967;150;27464;-78
2022/03/11 04:42:18;;;;;;;12.00;8.97;;;6.10;47.00;;;;;;935853;149;27824;-78
2022/03/11 04:44:45;;;;;;;11.93;8.97;;;6.10;46.90;;;;;;936498;149;27457;-78
2022/03/11 04:47:12;;;;;;;11.07;8.00;;;6.00;46.80;;;;;;934770;149;27294;-78
2022/03/11 04:49:38;;;;;;;11.17;9.27;;;6.00;46.90;;;;;;935362;149;27370;-78
2022/03/11 04:52:06;;;;;;;11.03;8.63;;;5.90;47.40;;;;;;937988;149;27431;-78
2022/03/11 04:54:31;;;;;;;13.40;10.17;;;5.90;46.80;;;;;;936370;149;27320;-78
2022/03/11 04:56:58;;;;;;;10.37;9.27;;;5.90;47.00;;;;;;910770;153;27328;-78
2022/03/11 04:59:24;;;;;;;9.73;8.67;;;5.90;47.00;;;;;;906752;154;27818;-77
2022/03/11 05:01:51;;;;;;;10.10;8.83;;;5.80;47.30;;;;;;903766;153;27378;-78
2022/03/11 05:04:18;;;;;;;11.03;8.40;;;5.90;47.00;;;;;;889239;156;27438;-78
2022/03/11 05:06:44;;;;;;;9.77;7.90;;;5.90;46.90;;;;;;906637;154;28275;-78
2022/03/11 05:09:11;;;;;;;12.77;8.87;;;5.90;46.80;;;;;;907700;154;27423;-78
2022/03/11 05:11:38;;;;;;;11.77;9.33;;;5.90;46.70;;;;;;906641;154;27392;-78
2022/03/11 05:14:04;;;;;;;13.90;8.80;;;5.80;46.60;;;;;;907909;154;27421;-78
2022/03/11 05:16:31;;;;;;;11.73;8.37;;;5.80;46.60;;;;;;904780;154;28131;-78
2022/03/11 05:18:57;;;;;;;11.80;8.43;;;5.80;46.60;;;;;;906620;154;27406;-78
2022/03/11 05:21:24;;;;;;;10.67;7.90;;;5.80;46.60;;;;;;906175;154;27926;-78
2022/03/11 05:23:50;;;;;;;10.93;8.13;;;5.70;46.60;;;;;;905643;154;27464;-78
2022/03/11 05:26:26;;;;;;;11.57;9.20;;;5.70;46.50;;;;;;906866;154;27398;-78
2022/03/11 05:28:55;;;;;;;11.17;8.63;;;5.60;46.50;;;;;;906882;154;27410;-78
2022/03/11 05:31:22;;;;;;;11.80;8.63;;;5.50;46.60;;;;;;905628;154;27367;-78
2022/03/11 05:33:48;;;;;;;11.03;8.33;;;5.50;46.60;;;;;;906614;154;27394;-78
2022/03/11 05:36:15;;;;;;;10.63;8.13;;;5.50;46.70;;;;;;906786;154;27366;-78
2022/03/11 05:38:42;;;;;;;9.67;7.87;;;5.50;46.70;;;;;;906567;154;27491;-78
2022/03/11 05:41:08;;;;;;;11.30;8.03;;;5.50;46.80;;;;;;906737;154;27499;-78
2022/03/11 05:43:36;;;;;;;10.93;9.17;;;5.40;46.60;;;;;;906721;154;27881;-78
2022/03/11 05:46:01;;;;;;;10.60;8.03;;;5.40;46.70;;;;;;906320;154;27903;-77
2022/03/11 05:48:28;;;;;;;11.70;8.50;;;5.40;46.70;;;;;;907621;154;27350;-78
2022/03/11 05:50:54;;;;;;;10.07;7.87;;;5.40;46.80;;;;;;906817;154;27539;-78
2022/03/11 05:53:21;;;;;;;10.10;8.17;;;5.40;46.80;;;;;;907956;151;27414;-78
2022/03/11 05:55:48;;;;;;;11.17;8.73;;;5.40;46.90;;;;;;939601;149;27285;-78
2022/03/11 05:58:14;;;;;;;11.73;9.27;;;5.30;46.90;;;;;;933258;150;27386;-78
2022/03/11 06:00:41;;;;;;;8.83;7.80;;;5.30;46.90;;;;;;932249;150;27887;-78
2022/03/11 06:03:07;;;;;;;11.93;8.20;;;5.30;47.00;;;;;;931474;150;27312;-78
2022/03/11 06:05:34;;;;;;;11.47;8.07;;;5.30;47.00;;;;;;930802;150;27407;-78
2022/03/11 06:08:01;;;;;;;11.93;7.93;;;5.30;47.00;;;;;;931990;150;28333;-78
2022/03/11 06:10:27;;;;;;;9.27;7.70;;;5.40;47.20;;;;;;932959;150;27416;-78
2022/03/11 06:12:54;;;;;;;9.90;7.93;;;5.40;47.40;;;;;;930395;150;27275;-78
2022/03/11 06:15:20;;;;;;;9.77;7.53;;;5.60;47.60;;;;;;922189;150;27371;-78
2022/03/11 06:17:47;;;;;;;8.80;7.20;;;5.80;47.80;;;;;;938949;148;27904;-78
2022/03/11 06:20:14;;;;;;;11.23;7.53;;;6.00;47.90;;;;;;939872;148;27356;-78
2022/03/11 06:22:49;;;;;;;9.47;7.53;;;6.30;48.00;;;;;;937871;148;27371;-78
2022/03/11 06:25:16;;;;;;;11.23;8.47;;;6.60;48.00;;;;;;937760;148;27408;-78
2022/03/11 06:27:42;;;;;;;10.23;8.77;;;7.00;47.90;;;;;;924667;150;27780;-78
2022/03/11 06:30:09;;;;;;;11.40;8.47;;;7.30;47.70;;;;;;940031;148;27456;-78
2022/03/11 06:32:41;;;;;;;10.73;8.13;;;7.70;47.60;;;;;;937124;148;27794;-78
2022/03/11 06:35:08;;;;;;;10.33;8.53;;;8.10;47.50;;;;;;936120;148;27425;-78
2022/03/11 06:37:34;;;;;;;10.27;8.47;;;8.50;47.30;;;;;;938048;148;27372;-78
2022/03/11 06:40:01;;;;;;;11.33;8.70;;;9.00;47.10;;;;;;938763;148;27362;-78
2022/03/11 06:42:33;;;;;;;10.53;8.83;;;9.40;46.70;;;;;;939139;148;27437;-78
2022/03/11 06:45:00;;;;;;;11.07;9.30;;;9.90;46.40;;;;;;937708;148;27875;-79
2022/03/11 06:47:27;;;;;;;10.70;8.40;;;10.30;46.00;;;;;;939508;148;27339;-78
2022/03/11 06:49:53;;;;;;;12.43;9.17;;;10.70;45.60;;;;;;937361;148;27285;-78
2022/03/11 06:52:20;;;;;;;10.10;8.70;;;11.10;44.90;;;;;;938786;148;27399;-78
2022/03/11 06:54:46;;;;;;;11.00;8.97;;;11.40;44.40;;;;;;936371;148;27392;-78
2022/03/11 06:57:15;;;;;;;12.23;9.10;;;11.70;44.20;;;;;;933616;152;27363;-78
2022/03/11 06:59:40;;;;;;;10.73;9.13;;;12.00;44.40;;;;;;932933;149;27327;-78
2022/03/11 07:02:06;;;;;;;10.40;8.67;;;12.30;43.40;;;;;;936846;151;27412;-78
2022/03/11 07:04:33;;;;;;;10.53;8.67;;;12.50;43.30;;;;;;933884;149;27301;-78
2022/03/11 07:06:59;;;;;;;11.23;9.33;;;12.80;43.00;;;;;;932929;152;27352;-78
2022/03/11 07:09:26;;;;;;;9.13;8.23;;;13.10;42.60;;;;;;936415;149;27394;-79
2022/03/11 07:11:57;;;;;;;10.50;9.03;;;13.40;42.30;;;;;;934789;149;27334;-78
2022/03/11 07:14:19;;;;;;;10.20;8.83;;;13.70;42.00;;;;;;934201;149;27330;-78
2022/03/11 07:16:46;;;;;;;12.90;9.10;;;13.90;41.40;;;;;;936751;151;27257;-79
2022/03/11 07:19:12;;;;;;;10.67;8.37;;;14.20;41.40;;;;;;935564;149;27370;-78
2022/03/11 07:21:39;;;;;;;10.13;8.53;;;14.40;41.10;;;;;;932798;150;27393;-79
2022/03/11 07:24:06;;;;;;;10.63;8.70;;;14.70;41.00;;;;;;930758;152;27271;-79
2022/03/11 07:26:33;;;;;;;11.53;8.93;;;14.90;40.60;;;;;;934781;149;27344;-79
2022/03/11 07:28:59;;;;;;;9.47;8.07;;;15.10;40.40;;;;;;933482;152;27274;-79
2022/03/11 07:31:25;;;;;;;8.88;7.85;;;15.30;40.30;;;;;;935042;151;27440;-79
2022/03/11 07:33:52;;;;;;;9.13;8.13;;;15.60;40.00;;;;;;934741;149;27460;-79
2022/03/11 07:36:18;;;;;;;8.48;7.20;;;15.80;39.30;;;;;;920746;152;27444;-79
2022/03/11 07:38:45;;;;;;;10.48;7.95;;;16.10;39.30;;;;;;920214;152;27424;-79
2022/03/11 07:41:13;;;;;;;8.05;6.60;;;16.30;39.10;;;;;;920576;152;27392;-79
2022/03/11 07:43:41;;;;;;;8.03;7.17;;;16.60;39.00;;;;;;920049;153;27373;-79
2022/03/11 07:46:05;;;;;;;7.42;6.70;;;16.80;38.50;;;;;;935955;152;27422;-79
2022/03/11 07:48:31;;;;;;;7.40;6.67;;;17.20;38.30;;;;;;935666;152;27367;-79
2022/03/11 07:50:58;;;;;;;7.78;6.97;;;17.40;37.70;;;;;;924561;154;27378;-79
2022/03/11 07:53:25;;;;;;;8.00;7.20;;;17.60;37.10;;;;;;920692;152;27431;-79
2022/03/11 07:55:51;;;;;;;7.25;6.25;;;17.70;36.80;;;;;;920804;152;27351;-79
2022/03/11 07:58:21;;;;;;;7.37;6.58;;;17.70;36.40;;;;;;911379;152;27416;-79
2022/03/11 08:00:44;;;;;;;7.65;6.92;;;17.80;36.10;;;;;;926764;149;27932;-79
2022/03/11 08:03:11;;;;;;;7.72;6.83;;;17.80;35.80;;;;;;929048;149;27449;-79
2022/03/11 08:05:38;;;;;;;8.55;6.53;;;17.80;35.70;;;;;;926334;149;27319;-79
2022/03/11 08:08:04;;;;;;;6.33;5.72;;;17.90;35.60;;;;;;932964;149;27391;-79
2022/03/11 08:10:33;;;;;;;8.45;6.62;;;17.90;35.90;;;;;;930784;147;27454;-79
2022/03/11 08:12:57;;;;;;;6.00;5.40;;;18.10;35.50;;;;;;926541;149;28367;-79
2022/03/11 08:15:24;;;;;;;8.25;6.40;;;18.30;35.60;;;;;;933899;149;27317;-79
2022/03/11 08:17:51;;;;;;;7.05;6.17;;;18.40;35.00;;;;;;928736;150;27364;-79
2022/03/11 08:20:18;;;;;;;7.33;6.35;;;18.60;35.10;;;;;;932009;149;27276;-79
2022/03/11 08:22:45;;;;;;;7.62;6.33;;;18.70;34.60;;;;;;926959;149;27384;-79
2022/03/11 08:25:10;;;;;;;6.67;6.00;;;18.90;35.00;;;;;;930670;149;27372;-79
2022/03/11 08:27:37;;;;;;;6.85;6.12;;;19.00;34.70;;;;;;931379;147;27309;-79
2022/03/11 08:30:03;;;;;;;7.20;5.83;;;19.20;34.30;;;;;;942482;147;27277;-79
2022/03/11 08:32:30;;;;;;;7.75;6.37;;;19.30;34.30;;;;;;932762;147;27358;-79
2022/03/11 08:34:58;;;;;;;6.08;5.47;;;19.50;34.10;;;;;;931954;148;27314;-79
2022/03/11 08:37:23;;;;;;;8.58;5.62;;;19.60;34.00;;;;;;932616;148;27374;-79
2022/03/11 08:39:50;;;;;;;6.53;5.70;;;19.80;34.00;;;;;;936657;148;27334;-80
2022/03/11 08:42:16;;;;;;;7.25;5.83;;;20.00;33.60;;;;;;931848;148;27324;-79
2022/03/11 08:44:43;;;;;;;7.87;6.08;;;20.10;33.10;;;;;;932968;148;27353;-79
2022/03/11 08:47:10;;;;;;;6.58;5.72;;;20.20;32.40;;;;;;933213;148;27418;-79
2022/03/11 08:49:36;;;;;;;6.37;5.78;;;20.30;31.80;;;;;;931231;148;27354;-80
2022/03/11 08:52:03;;;;;;;6.65;5.92;;;20.30;31.70;;;;;;932314;150;27359;-79
2022/03/11 08:54:29;;;;;;;7.20;6.05;;;20.20;31.40;;;;;;934852;150;27372;-79
2022/03/11 08:56:56;;;;;;;6.40;5.62;;;20.20;31.70;;;;;;934439;150;27426;-79
2022/03/11 08:59:23;;;;;;;6.60;6.00;;;20.10;31.50;;;;;;919300;153;27386;-79
2022/03/11 09:01:49;;;;;;;7.00;6.28;;;20.10;31.70;;;;;;928641;150;27362;-79
2022/03/11 09:04:16;;;;;;;6.70;6.00;;;20.10;31.90;;;;;;931779;150;27306;-79
2022/03/11 09:06:42;;;;;;;10.50;5.72;;;20.10;31.80;;;;;;925569;153;27345;-79
2022/03/11 09:09:09;;;;;;;7.85;5.85;;;20.10;31.60;;;;;;923710;151;27370;-79
2022/03/11 09:11:35;;;;;;;8.75;5.67;;;20.10;31.40;;;;;;924230;153;27351;-79
2022/03/11 09:14:02;;;;;;;6.17;5.50;;;20.10;31.60;;;;;;923967;154;27387;-79
2022/03/11 09:16:29;;;;;;;8.18;5.62;;;20.20;31.90;;;;;;922521;151;28348;-80
2022/03/11 09:18:55;;;;;;;7.40;5.60;;;20.20;31.90;;;;;;924569;154;27294;-79
2022/03/11 09:21:22;;;;;;;10.30;6.17;;;20.30;31.70;;;;;;924869;152;27314;-79
2022/03/11 09:23:49;;;;;;;7.05;6.35;;;20.40;31.50;;;;;;924648;153;27320;-80
2022/03/11 09:26:15;;;;;;;6.95;5.97;;;20.40;30.70;;;;;;924800;151;27425;-79
2022/03/11 09:28:42;;;;;;;6.50;5.78;;;20.40;30.90;;;;;;924300;154;27395;-79
2022/03/11 09:31:08;;;;;;;6.50;5.75;;;20.40;30.40;;;;;;922776;151;27412;-79
2022/03/11 09:33:35;;;;;;;6.25;5.62;;;20.40;30.60;;;;;;923880;151;27375;-79
2022/03/11 09:36:01;;;;;;;5.80;5.25;;;20.30;30.50;;;;;;922061;154;27306;-79
2022/03/11 09:38:28;;;;;;;5.47;4.97;;;20.10;30.60;;;;;;924186;151;27440;-79
2022/03/11 09:40:55;;;;;;;6.67;5.60;;;20.10;31.00;;;;;;922984;151;27382;-79
2022/03/11 09:43:21;;;;;;;6.50;5.85;;;20.00;31.00;;;;;;922848;151;27404;-80
2022/03/11 09:45:48;;;;;;;7.95;5.78;;;19.90;31.10;;;;;;925099;153;27323;-79
2022/03/11 09:48:15;;;;;;;5.87;5.30;;;19.90;31.10;;;;;;924210;151;27950;-80
2022/03/11 09:50:41;;;;;;;7.83;6.42;;;19.90;31.00;;;;;;922418;151;27437;-80
2022/03/11 09:53:08;;;;;;;6.75;6.08;;;19.80;30.70;;;;;;925437;152;27476;-80
2022/03/11 09:55:34;;;;;;;6.80;6.10;;;19.80;30.50;;;;;;922765;152;27340;-79
2022/03/11 09:58:01;;;;;;;6.55;5.92;;;19.60;30.30;;;;;;925531;151;27367;-79
2022/03/11 10:00:27;;;;;;;6.05;5.45;;;19.40;30.50;;;;;;924677;152;27410;-80
2022/03/11 10:02:55;;;;;;;8.18;5.55;;;19.10;30.70;;;;;;927510;148;27303;-80
2022/03/11 10:05:20;;;;;;;6.03;5.42;;;18.90;30.90;;;;;;941328;148;27829;-79
2022/03/11 10:07:47;;;;;;;6.40;5.80;;;18.60;30.90;;;;;;942235;148;27408;-80
2022/03/11 10:10:16;;;;;;;8.10;6.10;;;18.40;30.90;;;;;;932523;148;27347;-79
2022/03/11 10:12:43;;;;;;;9.18;6.55;;;18.20;30.90;;;;;;927836;149;27320;-80
2022/03/11 10:15:09;;;;;;;7.95;5.60;;;18.00;30.70;;;;;;929462;149;27491;-80
2022/03/11 10:17:36;;;;;;;6.45;5.85;;;17.70;30.80;;;;;;928934;149;27482;-79
2022/03/11 10:20:03;;;;;;;6.20;5.60;;;17.50;30.90;;;;;;927147;149;27340;-80
2022/03/11 10:22:29;;;;;;;7.75;6.25;;;17.20;31.00;;;;;;927207;149;27351;-80
2022/03/11 10:24:56;;;;;;;6.13;5.53;;;17.00;31.00;;;;;;929027;149;27328;-79
2022/03/11 10:27:23;;;;;;;6.77;5.90;;;16.70;31.00;;;;;;926747;149;27306;-79
2022/03/11 10:29:49;;;;;;;7.03;6.10;;;16.50;31.00;;;;;;927803;149;27895;-79
2022/03/11 10:32:16;;;;;;;6.37;5.77;;;16.20;31.00;;;;;;928119;149;27352;-79
2022/03/11 10:34:42;;;;;;;6.07;5.47;;;16.00;31.20;;;;;;926818;149;27435;-79
2022/03/11 10:37:12;;;;;;;8.60;6.13;;;15.60;31.30;;;;;;927025;149;27434;-79
2022/03/11 10:39:41;;;;;;;6.40;5.67;;;15.40;31.60;;;;;;926522;149;27424;-79
2022/03/11 10:42:15;;;;;;;6.10;5.43;;;15.10;31.70;;;;;;928898;149;27370;-80
2022/03/11 10:44:40;;;;;;;6.20;5.50;;;14.90;31.80;;;;;;927896;149;27437;-79
2022/03/11 10:47:19;;;;;;;9.57;6.43;;;14.60;31.90;;;;;;929050;149;27305;-79
2022/03/11 10:49:48;;;;;;;7.37;6.57;;;14.40;32.00;;;;;;927375;149;27869;-80
2022/03/11 10:52:15;;;;;;;7.77;6.07;;;14.20;33.00;;;;;;926829;149;27376;-79
2022/03/11 10:54:42;;;;;;;7.63;6.67;;;13.90;32.40;;;;;;928243;149;27365;-79
2022/03/11 10:57:09;;;;;;;7.97;6.87;;;13.80;32.70;;;;;;927305;149;27412;-79
2022/03/11 10:59:35;;;;;;;7.17;5.60;;;13.60;32.90;;;;;;920379;150;27350;-79
2022/03/11 11:02:02;;;;;;;7.57;6.20;;;13.40;33.00;;;;;;919674;150;27445;-79
2022/03/11 11:04:28;;;;;;;6.47;5.77;;;13.30;33.20;;;;;;922681;150;27305;-79
2022/03/11 11:06:54;;;;;;;8.40;6.50;;;13.10;33.30;;;;;;921711;150;27529;-79
2022/03/11 11:09:24;;;;;;;7.00;6.00;;;13.00;33.50;;;;;;921540;150;27405;-79
2022/03/11 11:11:51;;;;;;;9.10;6.30;;;12.90;33.90;;;;;;920528;150;27324;-79
2022/03/11 11:14:17;;;;;;;7.63;6.13;;;12.90;34.00;;;;;;919917;150;28225;-79
2022/03/11 11:16:43;;;;;;;8.27;5.67;;;12.90;34.80;;;;;;921166;150;27358;-78
2022/03/11 11:19:13;;;;;;;7.30;6.60;;;12.90;34.20;;;;;;921819;150;27459;-79
2022/03/11 11:21:39;;;;;;;7.07;6.23;;;12.80;34.20;;;;;;921287;150;27433;-79
2022/03/11 11:24:06;;;;;;;6.70;6.03;;;12.80;34.20;;;;;;921533;150;27332;-79
2022/03/11 11:26:32;;;;;;;7.70;6.90;;;12.80;34.30;;;;;;922463;150;27348;-79
2022/03/11 11:29:00;;;;;;;7.27;6.37;;;12.70;34.40;;;;;;922733;150;27329;-79
2022/03/11 11:31:26;;;;;;;6.60;5.70;;;12.70;34.50;;;;;;921175;150;27387;-79
2022/03/11 11:33:52;;;;;;;9.83;7.27;;;12.70;34.70;;;;;;923778;150;27375;-79
2022/03/11 11:36:37;;;;;;;7.17;6.23;;;12.70;34.80;;;;;;924868;150;27259;-79
2022/03/11 11:39:04;;;;;;;9.33;5.77;;;12.80;34.80;;;;;;921390;150;27326;-80
2022/03/11 11:41:30;;;;;;;6.67;5.93;;;12.80;34.90;;;;;;922916;150;27403;-79
2022/03/11 11:44:00;;;;;;;7.10;5.90;;;12.80;35.00;;;;;;921267;150;27390;-79
2022/03/11 11:46:26;;;;;;;7.23;6.37;;;12.80;35.00;;;;;;920281;150;27463;-79
2022/03/11 11:48:53;;;;;;;7.97;6.30;;;12.80;35.00;;;;;;921779;150;27441;-79
2022/03/11 11:51:19;;;;;;;6.93;6.23;;;12.80;35.10;;;;;;921908;150;27400;-80
2022/03/11 11:53:46;;;;;;;6.40;5.80;;;12.90;35.20;;;;;;922647;150;27338;-80
2022/03/11 11:56:28;;;;;;;9.80;6.50;;;13.00;35.20;;;;;;922289;150;27350;-79
2022/03/11 11:58:57;;;;;;;6.87;6.17;;;13.00;35.20;;;;;;935278;148;27408;-80
2022/03/11 12:01:39;;;;;;;6.80;6.10;;;13.10;35.10;;;;;;942543;148;27486;-80
2022/03/11 12:04:37;;;;;;;12.00;6.83;;;13.10;35.00;;;;;;942902;148;27387;-80
2022/03/11 12:07:06;;;;;;;9.50;6.27;;;13.10;35.00;;;;;;942513;148;27374;-80
2022/03/11 12:09:50;;;;;;;8.37;6.10;;;13.10;35.00;;;;;;937850;148;27392;-79
2022/03/11 12:12:30;;;;;;;9.87;7.17;;;13.10;35.10;;;;;;933708;149;27339;-80
2022/03/11 12:15:01;;;;;;;10.27;5.27;;;13.20;35.80;;;;;;932573;149;27369;-80
2022/03/11 12:17:51;;;;;;;6.97;6.27;;;13.20;35.10;;;;;;935871;149;27520;-80
2022/03/11 12:20:21;;;;;;;7.53;6.37;;;13.20;35.30;;;;;;932420;149;27353;-80
2022/03/11 12:22:54;;;;;;;7.37;5.63;;;13.20;35.20;;;;;;935165;149;27400;-81
2022/03/11 12:25:17;;;;;;;11.50;6.17;;;13.30;35.20;;;;;;932704;149;27954;-80
2022/03/11 12:28:05;;;;;;;7.67;6.50;;;13.30;35.20;;;;;;934445;149;27401;-80
2022/03/11 12:30:38;;;;;;;8.90;6.20;;;13.30;35.10;;;;;;934511;149;27451;-80
2022/03/11 12:33:06;;;;;;;7.27;6.20;;;13.30;35.10;;;;;;934591;149;27948;-79
2022/03/11 12:35:33;;;;;;;6.57;5.90;;;13.30;35.10;;;;;;933997;149;28095;-79
2022/03/11 12:37:59;;;;;;;10.97;6.70;;;13.30;35.20;;;;;;935454;149;27363;-79
2022/03/11 12:40:26;;;;;;;8.93;6.33;;;13.30;35.20;;;;;;934636;149;28145;-80
2022/03/11 12:42:59;;;;;;;7.63;6.30;;;13.40;35.10;;;;;;935839;149;27381;-80
2022/03/11 12:45:37;;;;;;;8.07;6.20;;;13.40;35.20;;;;;;932240;149;27363;-79